| time (UTC) | temp F | wind direction | speed knots | gust knots | rain 1hr in | rain 24hr in | rain mn in | humidity % | barometer mb |
| 20260906225017 | 98 | 84 | 0.9 | 2.6 | 0.00 | 0.00 | 0.00 | 39 | 1010.5 |
| 20260906224017 | 99 | 136 | 1.7 | 6.1 | 0.00 | 0.00 | 0.00 | 39 | 1010.5 |
| 20260906223017 | 98 | 143 | 0.9 | 4.3 | 0.00 | 0.00 | 0.00 | 39 | 1010.5 |
| 20260906222017 | 98 | 107 | 1.7 | 6.1 | 0.00 | 0.00 | 0.00 | 38 | 1010.6 |
| 20260906221017 | 98 | 111 | 1.7 | 5.2 | 0.00 | 0.00 | 0.00 | 39 | 1010.6 |
| 20260906220018 | 99 | 127 | 1.7 | 4.3 | 0.00 | 0.00 | 0.00 | 39 | 1010.6 |
| 20260906215018 | 99 | 139 | 1.7 | 4.3 | 0.00 | 0.00 | 0.00 | 38 | 1010.6 |
| 20260906214018 | 100 | 90 | 2.6 | 4.3 | 0.00 | 0.00 | 0.00 | 38 | 1010.8 |
| 20260906213018 | 100 | 102 | 0.9 | 3.5 | 0.00 | 0.00 | 0.00 | 37 | 1010.9 |
| 20260906212038 | 100 | 126 | 1.7 | 5.2 | 0.00 | 0.00 | 0.00 | 38 | 1011.0 |
| 20260906211018 | 100 | 97 | 1.7 | 6.1 | 0.00 | 0.00 | 0.00 | 38 | 1011.1 |
| 20260906210058 | 100 | 85 | 1.7 | 5.2 | 0.00 | 0.00 | 0.00 | 38 | 1011.3 |
| 20260906205018 | 100 | 99 | 1.7 | 4.3 | 0.00 | 0.00 | 0.00 | 38 | 1011.5 |
| 20260906204018 | 100 | 123 | 1.7 | 3.5 | 0.00 | 0.00 | 0.00 | 40 | 1011.6 |
| 20260906203016 | 100 | 100 | 1.7 | 6.1 | 0.00 | 0.00 | 0.00 | 39 | 1011.6 |
| 20260906202016 | 99 | 80 | 2.6 | 4.3 | 0.00 | 0.00 | 0.00 | 41 | 1011.8 |
| 20260906201036 | 99 | 79 | 0.9 | 3.5 | 0.00 | 0.00 | 0.00 | 41 | 1011.9 |
| 20260906200016 | 100 | 97 | 2.6 | 4.3 | 0.00 | 0.00 | 0.00 | 40 | 1012.0 |
| 20260906195017 | 99 | 122 | 1.7 | 4.3 | 0.00 | 0.00 | 0.00 | 40 | 1012.1 |
| 20260906194016 | 99 | 127 | 2.6 | 5.2 | 0.00 | 0.00 | 0.00 | 40 | 1012.2 |
| 20260906193017 | 99 | 125 | 2.6 | 5.2 | 0.00 | 0.00 | 0.00 | 40 | 1012.3 |
| 20260906192016 | 99 | 66 | 1.7 | 5.2 | 0.00 | 0.00 | 0.00 | 42 | 1012.4 |
| 20260906191036 | 99 | 129 | 0.9 | 3.5 | 0.00 | 0.00 | 0.00 | 43 | 1012.5 |
| 20260906190017 | 99 | 87 | 1.7 | 5.2 | 0.00 | 0.00 | 0.00 | 42 | 1012.5 |
| 20260906185017 | 98 | 88 | 1.7 | 5.2 | 0.00 | 0.00 | 0.00 | 43 | 1012.6 |
| 20260906184017 | 98 | 109 | 1.7 | 6.1 | 0.00 | 0.00 | 0.00 | 44 | 1012.8 |
| 20260906183018 | 98 | 112 | 1.7 | 3.5 | 0.00 | 0.00 | 0.00 | 43 | 1013.0 |
| 20260906182017 | 98 | 97 | 1.7 | 4.3 | 0.00 | 0.00 | 0.00 | 43 | 1013.0 |
| 20260906181018 | 98 | 79 | 1.7 | 4.3 | 0.00 | 0.00 | 0.00 | 45 | 1013.2 |
| 20260906180018 | 98 | 101 | 1.7 | 3.5 | 0.00 | 0.00 | 0.00 | 45 | 1013.3 |
| 20260906175018 | 98 | 118 | 1.7 | 4.3 | 0.00 | 0.00 | 0.00 | 45 | 1013.4 |
| 20260906174018 | 97 | 117 | 1.7 | 4.3 | 0.00 | 0.00 | 0.00 | 45 | 1013.6 |
| 20260906173016 | 97 | 67 | 1.7 | 4.3 | 0.00 | 0.00 | 0.00 | 47 | 1013.8 |
| 20260906172016 | 97 | 107 | 0.9 | 3.5 | 0.00 | 0.00 | 0.00 | 47 | 1014.0 |
| 20260906171016 | 96 | 87 | 0.9 | 3.5 | 0.00 | 0.00 | 0.00 | 47 | 1014.0 |
| 20260906170016 | 95 | 101 | 0.9 | 3.5 | 0.00 | 0.00 | 0.00 | 49 | 1014.0 |
| 20260906165016 | 95 | 127 | 1.7 | 5.2 | 0.00 | 0.00 | 0.00 | 50 | 1014.2 |
| 20260906164016 | 95 | 137 | 0.9 | 4.3 | 0.00 | 0.00 | 0.00 | 52 | 1014.3 |
| 20260906163016 | 94 | 127 | 0.9 | 4.3 | 0.00 | 0.00 | 0.00 | 53 | 1014.3 |
| 20260906162017 | 94 | 144 | 1.7 | 5.2 | 0.00 | 0.00 | 0.00 | 53 | 1014.2 |
| 20260906161016 | 94 | 110 | 0.9 | 2.6 | 0.00 | 0.00 | 0.00 | 54 | 1014.3 |
| 20260906160017 | 93 | 129 | 0.9 | 3.5 | 0.00 | 0.00 | 0.00 | 56 | 1014.3 |
| 20260906155018 | 92 | 125 | 0.9 | 3.5 | 0.00 | 0.00 | 0.00 | 58 | 1014.3 |
| 20260906154017 | 91 | 109 | 0.9 | 4.3 | 0.00 | 0.00 | 0.00 | 60 | 1014.2 |
| 20260906153018 | 90 | 86 | 0.9 | 4.3 | 0.00 | 0.00 | 0.00 | 60 | 1014.1 |
| 20260906152017 | 90 | 146 | 1.7 | 5.2 | 0.00 | 0.00 | 0.00 | 62 | 1014.0 |
| 20260906151018 | 89 | 88 | 0.9 | 2.6 | 0.00 | 0.00 | 0.00 | 64 | 1014.0 |
| 20260906150018 | 88 | 87 | 0.9 | 3.5 | 0.00 | 0.00 | 0.00 | 66 | 1013.9 |
| 20260906145018 | 87 | 142 | 0.9 | 3.5 | 0.00 | 0.00 | 0.00 | 67 | 1013.9 |
| 20260906144019 | 86 | 149 | 0.9 | 6.1 | 0.00 | 0.00 | 0.00 | 68 | 1013.8 |
| 20260906143018 | 85 | 153 | 1.7 | 5.2 | 0.00 | 0.00 | 0.00 | 70 | 1013.8 |
| 20260906142026 | 84 | 151 | 0.9 | 2.6 | 0.00 | 0.00 | 0.00 | 72 | 1013.9 |
| 20260906141046 | 84 | 124 | 0.0 | 1.7 | 0.00 | 0.00 | 0.00 | 73 | 1014.0 |
| 20260906140026 | 83 | 126 | 0.0 | 0.9 | 0.00 | 0.00 | 0.00 | 75 | 1014.0 |
| 20260906135046 | 83 | 99 | 0.0 | 1.7 | 0.00 | 0.00 | 0.00 | 76 | 1014.0 |
| 20260906134027 | 82 | 175 | 0.0 | 1.7 | 0.00 | 0.00 | 0.00 | 77 | 1013.9 |
| 20260906133027 | 82 | 162 | 0.0 | 0.9 | 0.00 | 0.00 | 0.00 | 78 | 1013.9 |
| 20260906132027 | 81 | 77 | 0.0 | 0.9 | 0.00 | 0.00 | 0.00 | 80 | 1013.8 |
| 20260906131027 | 81 | 0.0 | 0.0 | 0.00 | 0.00 | 0.00 | 80 | 1013.8 | |
| 20260906130107 | 80 | 0.0 | 0.0 | 0.00 | 0.00 | 0.00 | 81 | 1013.7 | |
| 20260906125047 | 80 | 0.0 | 0.0 | 0.00 | 0.00 | 0.00 | 82 | 1013.7 | |
| 20260906124108 | 79 | 0.0 | 0.0 | 0.00 | 0.00 | 0.00 | 82 | 1013.7 | |
| 20260906123028 | 79 | 121 | 0.0 | 0.0 | 0.00 | 0.00 | 0.00 | 83 | 1013.5 |
| 20260906122048 | 78 | 0.0 | 0.0 | 0.00 | 0.00 | 0.00 | 83 | 1013.4 | |
| 20260906121028 | 79 | 0.0 | 0.0 | 0.00 | 0.00 | 0.00 | 83 | 1013.3 | |
| 20260906120028 | 79 | 0.0 | 0.0 | 0.00 | 0.00 | 0.00 | 82 | 1013.3 | |
| 20260906115029 | 79 | 0.0 | 0.0 | 0.00 | 0.00 | 0.00 | 81 | 1013.2 | |
| 20260906114029 | 79 | 0.0 | 0.0 | 0.00 | 0.00 | 0.00 | 81 | 1013.0 | |
| 20260906113029 | 79 | 0.0 | 0.0 | 0.00 | 0.00 | 0.00 | 81 | 1013.0 | |
| 20260906112029 | 79 | 0.0 | 0.0 | 0.00 | 0.00 | 0.00 | 81 | 1012.9 | |
| 20260906111049 | 79 | 0.0 | 0.0 | 0.00 | 0.00 | 0.00 | 82 | 1013.0 | |
| 20260906110015 | 79 | 0.0 | 0.0 | 0.00 | 0.00 | 0.00 | 82 | 1013.0 | |
| 20260906105016 | 79 | 0.0 | 0.0 | 0.00 | 0.00 | 0.00 | 81 | 1012.8 | |
| 20260906104016 | 79 | 0.0 | 0.0 | 0.00 | 0.00 | 0.00 | 81 | 1012.8 | |
| 20260906103016 | 80 | 0.0 | 0.0 | 0.00 | 0.00 | 0.00 | 80 | 1012.7 | |
| 20260906102016 | 80 | 0.0 | 0.0 | 0.00 | 0.00 | 0.00 | 80 | 1012.7 | |
| 20260906101017 | 80 | 0.0 | 0.0 | 0.00 | 0.00 | 0.00 | 80 | 1012.6 | |
| 20260906100017 | 80 | 0.0 | 0.0 | 0.00 | 0.00 | 0.00 | 79 | 1012.5 | |
| 20260906095017 | 81 | 0.0 | 0.0 | 0.00 | 0.00 | 0.00 | 78 | 1012.4 | |
| 20260906094037 | 81 | 0.0 | 0.0 | 0.00 | 0.00 | 0.00 | 77 | 1012.3 | |
| 20260906093058 | 81 | 0.0 | 0.0 | 0.00 | 0.00 | 0.00 | 76 | 1012.2 | |
| 20260906092038 | 82 | 0.0 | 0.0 | 0.00 | 0.00 | 0.00 | 75 | 1012.1 | |
| 20260906091017 | 82 | 0.0 | 0.0 | 0.00 | 0.00 | 0.00 | 74 | 1012.1 | |
| 20260906090018 | 82 | 141 | 0.0 | 0.9 | 0.00 | 0.00 | 0.00 | 73 | 1012.1 |
| 20260906085018 | 82 | 98 | 0.0 | 1.7 | 0.00 | 0.00 | 0.00 | 73 | 1012.1 |
| 20260906084018 | 83 | 0.0 | 0.0 | 0.00 | 0.00 | 0.00 | 73 | 1012.2 | |
| 20260906083018 | 83 | 123 | 0.0 | 0.0 | 0.00 | 0.00 | 0.00 | 73 | 1012.1 |
| 20260906082019 | 83 | 135 | 0.0 | 1.7 | 0.00 | 0.00 | 0.00 | 72 | 1011.9 |
| 20260906081018 | 83 | 123 | 0.0 | 1.7 | 0.00 | 0.00 | 0.00 | 73 | 1012.0 |
| 20260906080019 | 83 | 123 | 0.0 | 0.9 | 0.00 | 0.00 | 0.00 | 73 | 1012.2 |
| 20260906075019 | 83 | 55 | 0.0 | 0.9 | 0.00 | 0.00 | 0.00 | 73 | 1012.2 |
| 20260906074019 | 83 | 156 | 0.9 | 2.6 | 0.00 | 0.00 | 0.00 | 72 | 1012.2 |
| 20260906073019 | 84 | 0.0 | 0.0 | 0.00 | 0.00 | 0.00 | 72 | 1012.2 | |
| 20260906072019 | 84 | 130 | 0.0 | 0.9 | 0.00 | 0.00 | 0.00 | 72 | 1012.2 |
| 20260906071020 | 84 | 172 | 0.0 | 1.7 | 0.00 | 0.00 | 0.00 | 71 | 1012.4 |
| 20260906070040 | 84 | 144 | 0.0 | 0.9 | 0.00 | 0.00 | 0.00 | 70 | 1012.4 |
| 20260906065020 | 84 | 120 | 0.0 | 1.7 | 0.00 | 0.00 | 0.00 | 69 | 1012.5 |
| 20260906064020 | 85 | 0.0 | 0.0 | 0.00 | 0.00 | 0.00 | 68 | 1012.4 | |
| 20260906063021 | 85 | 130 | 0.9 | 1.7 | 0.00 | 0.00 | 0.00 | 68 | 1012.4 |
| 20260906062020 | 84 | 137 | 0.9 | 1.7 | 0.00 | 0.00 | 0.00 | 68 | 1012.4 |
| 20260906061021 | 84 | 152 | 0.0 | 0.9 | 0.00 | 0.00 | 0.00 | 68 | 1012.4 |
| 20260906060041 | 84 | 0.0 | 0.0 | 0.00 | 0.00 | 0.00 | 68 | 1012.5 | |
| 20260906055021 | 84 | 120 | 0.0 | 0.9 | 0.00 | 0.00 | 0.00 | 68 | 1012.4 |
| 20260906054021 | 84 | 0.0 | 0.0 | 0.00 | 0.00 | 0.00 | 68 | 1012.4 | |
| 20260906053021 | 85 | 0.0 | 0.0 | 0.00 | 0.00 | 0.00 | 67 | 1012.4 | |
| 20260906052021 | 85 | 0.0 | 0.0 | 0.00 | 0.00 | 0.00 | 67 | 1012.4 | |
| 20260906051022 | 85 | 118 | 0.0 | 0.9 | 0.00 | 0.00 | 0.00 | 66 | 1012.4 |
| 20260906050022 | 85 | 133 | 0.0 | 1.7 | 0.00 | 0.00 | 0.00 | 65 | 1012.5 |
| 20260906045022 | 86 | 153 | 0.0 | 2.6 | 0.00 | 0.00 | 0.00 | 65 | 1012.4 |
| 20260906044022 | 86 | 126 | 0.0 | 1.7 | 0.00 | 0.00 | 0.00 | 65 | 1012.4 |
| 20260906043023 | 86 | 145 | 0.0 | 0.9 | 0.00 | 0.00 | 0.00 | 64 | 1012.3 |
| 20260906042022 | 86 | 110 | 0.0 | 0.9 | 0.00 | 0.00 | 0.00 | 63 | 1012.4 |
| 20260906041022 | 87 | 124 | 0.0 | 1.7 | 0.00 | 0.00 | 0.00 | 63 | 1012.3 |
| 20260906040023 | 87 | 139 | 0.0 | 0.0 | 0.00 | 0.00 | 0.00 | 62 | 1012.2 |
| 20260906035024 | 87 | 128 | 0.0 | 2.6 | 0.00 | 0.00 | 0.00 | 61 | 1012.5 |
| 20260906034023 | 88 | 144 | 0.9 | 2.6 | 0.00 | 0.00 | 0.00 | 60 | 1012.3 |
| 20260906033045 | 88 | 129 | 0.9 | 1.7 | 0.00 | 0.00 | 0.00 | 59 | 1012.2 |
| 20260906032024 | 88 | 142 | 0.9 | 2.6 | 0.00 | 0.00 | 0.00 | 58 | 1012.3 |
| 20260906031024 | 89 | 141 | 1.7 | 3.5 | 0.00 | 0.00 | 0.00 | 57 | 1012.5 |
| 20260906030024 | 89 | 147 | 1.7 | 4.3 | 0.00 | 0.00 | 0.00 | 57 | 1012.4 |
| 20260906025024 | 89 | 140 | 1.7 | 4.3 | 0.00 | 0.00 | 0.00 | 56 | 1012.3 |
| 20260906024036 | 89 | 145 | 1.7 | 5.2 | 0.00 | 0.00 | 0.00 | 55 | 1012.2 |
| 20260906023016 | 89 | 150 | 1.7 | 5.2 | 0.00 | 0.00 | 0.00 | 55 | 1012.1 |
| 20260906022016 | 89 | 145 | 1.7 | 4.3 | 0.00 | 0.00 | 0.00 | 55 | 1011.8 |
| 20260906021017 | 89 | 147 | 0.9 | 4.3 | 0.00 | 0.00 | 0.00 | 54 | 1011.7 |
| 20260906020037 | 90 | 140 | 2.6 | 5.2 | 0.00 | 0.00 | 0.00 | 54 | 1011.6 |
| 20260906015016 | 90 | 149 | 2.6 | 7.0 | 0.00 | 0.00 | 0.00 | 54 | 1011.4 |
| 20260906014017 | 91 | 146 | 2.6 | 6.1 | 0.00 | 0.00 | 0.00 | 54 | 1011.3 |
| 20260906013057 | 91 | 139 | 2.6 | 8.7 | 0.00 | 0.00 | 0.00 | 53 | 1011.2 |
| 20260906012017 | 93 | 137 | 2.6 | 7.8 | 0.00 | 0.00 | 0.00 | 50 | 1010.9 |
| 20260906011038 | 94 | 144 | 2.6 | 7.8 | 0.00 | 0.00 | 0.00 | 48 | 1010.7 |
| 20260906010018 | 95 | 132 | 1.7 | 6.1 | 0.00 | 0.00 | 0.00 | 43 | 1010.5 |
| 20260906005017 | 95 | 80 | 0.0 | 1.7 | 0.00 | 0.00 | 0.00 | 42 | 1010.5 |
| 20260906004018 | 96 | 117 | 0.9 | 2.6 | 0.00 | 0.00 | 0.00 | 41 | 1010.4 |
| 20260906003038 | 96 | 105 | 0.9 | 3.5 | 0.00 | 0.00 | 0.00 | 42 | 1010.4 |
| 20260906002019 | 97 | 122 | 1.7 | 3.5 | 0.00 | 0.00 | 0.00 | 40 | 1010.5 |
| 20260906001018 | 98 | 128 | 0.9 | 3.5 | 0.00 | 0.00 | 0.00 | 39 | 1010.5 |
| 20260906000016 | 99 | 101 | 0.9 | 2.6 | 0.00 | 0.00 | 0.00 | 38 | 1010.3 |
| 20260905235038 | 99 | 93 | 0.9 | 2.6 | 0.00 | 0.00 | 0.00 | 38 | 1010.2 |
| 20260905234016 | 99 | 89 | 0.9 | 3.5 | 0.00 | 0.00 | 0.00 | 37 | 1010.2 |
| 20260905233016 | 99 | 113 | 1.7 | 2.6 | 0.00 | 0.00 | 0.00 | 37 | 1010.1 |
| 20260905232016 | 99 | 111 | 0.9 | 3.5 | 0.00 | 0.00 | 0.00 | 37 | 1010.2 |
| 20260905231016 | 99 | 59 | 0.9 | 3.5 | 0.00 | 0.00 | 0.00 | 37 | 1010.2 |
| 20260905230016 | 100 | 80 | 1.7 | 3.5 | 0.00 | 0.00 | 0.00 | 36 | 1010.1 |